createdAt,value
2023-01-28T00:04:13.573Z,7.30
2023-01-28T00:09:35.279Z,8.77
2023-01-28T00:14:56.962Z,10.20
2023-01-28T00:20:18.716Z,7.90
2023-01-28T00:25:40.391Z,10.90
2023-01-28T00:31:09.875Z,12.03
2023-01-28T00:36:31.642Z,8.47
2023-01-28T00:41:54.449Z,10.10
2023-01-28T00:47:16.106Z,9.33
2023-01-28T00:52:37.814Z,9.33
2023-01-28T00:57:59.488Z,8.20
2023-01-28T01:03:21.181Z,7.70
2023-01-28T01:08:49.956Z,11.97
2023-01-28T01:14:11.698Z,7.70
2023-01-28T01:19:33.386Z,9.00
2023-01-28T01:24:55.063Z,6.83
2023-01-28T01:30:17.147Z,7.23
2023-01-28T01:35:38.870Z,9.17
2023-01-28T01:41:01.425Z,6.53
2023-01-28T01:46:38.185Z,6.87
2023-01-28T01:52:06.390Z,8.70
2023-01-28T01:57:32.182Z,7.00
2023-01-28T02:08:21.606Z,10.70
2023-01-28T02:13:51.034Z,7.43
2023-01-28T02:19:12.756Z,8.07
2023-01-28T02:25:28.600Z,9.23
2023-01-28T02:31:08.360Z,6.47
2023-01-28T02:36:40.462Z,7.07
2023-01-28T02:47:57.493Z,7.47
2023-01-28T02:53:44.214Z,7.80
2023-01-28T02:59:36.960Z,5.73
2023-01-28T03:05:07.834Z,5.30
2023-01-28T03:10:29.567Z,9.07
2023-01-28T03:16:09.836Z,6.10
2023-01-28T03:21:57.356Z,7.80
2023-01-28T03:27:58.700Z,6.50
2023-01-28T03:33:39.993Z,8.33
2023-01-28T03:39:02.093Z,9.10
2023-01-28T03:44:44.228Z,7.80
2023-01-28T03:50:06.676Z,8.10
2023-01-28T03:55:28.413Z,7.83
2023-01-28T04:00:50.676Z,9.40
2023-01-28T04:06:12.513Z,8.23
2023-01-28T04:11:34.251Z,10.37
2023-01-28T04:16:56.722Z,10.10
2023-01-28T04:22:18.468Z,9.53
2023-01-28T04:27:40.192Z,9.10
2023-01-28T04:33:01.869Z,9.27
2023-01-28T04:38:23.919Z,9.67
2023-01-28T04:43:46.725Z,8.93
2023-01-28T04:49:08.506Z,9.97
2023-01-28T04:54:30.251Z,11.73
2023-01-28T04:59:51.932Z,10.53
2023-01-28T05:05:13.954Z,9.70
2023-01-28T05:10:36.005Z,10.00
2023-01-28T05:15:57.732Z,10.77
2023-01-28T05:21:19.442Z,10.20
2023-01-28T05:26:41.555Z,13.27
2023-01-28T05:32:03.370Z,11.77
2023-01-28T05:37:25.070Z,13.50
2023-01-28T05:42:47.083Z,12.53
2023-01-28T05:48:08.780Z,10.87
2023-01-28T05:53:31.017Z,12.13
2023-01-28T05:58:52.678Z,10.17
2023-01-28T06:04:14.428Z,11.87
2023-01-28T06:09:36.184Z,12.00
2023-01-28T06:14:57.892Z,12.10
2023-01-28T06:20:19.708Z,10.73
2023-01-28T06:25:41.459Z,12.93
2023-01-28T06:31:03.203Z,10.83
2023-01-28T06:36:24.956Z,11.13
2023-01-28T06:41:46.665Z,11.27
2023-01-28T06:47:09.641Z,12.50
2023-01-28T06:52:31.516Z,12.17
2023-01-28T06:57:53.224Z,10.53
2023-01-28T07:03:16.032Z,13.33
2023-01-28T07:08:37.964Z,12.67
2023-01-28T07:13:59.640Z,11.17
2023-01-28T07:19:21.326Z,10.90
2023-01-28T07:24:43.084Z,13.03
2023-01-28T07:30:05.492Z,12.20
2023-01-28T07:35:27.836Z,10.57
2023-01-28T07:40:50.132Z,11.53
2023-01-28T07:46:11.828Z,13.13
2023-01-28T07:51:33.522Z,12.80
2023-01-28T07:56:55.229Z,12.03
2023-01-28T08:02:17.960Z,16.83
2023-01-28T08:07:39.776Z,15.83
2023-01-28T08:13:01.699Z,12.27
2023-01-28T08:18:23.394Z,15.93
2023-01-28T08:23:45.160Z,13.13
2023-01-28T08:29:06.897Z,12.10
2023-01-28T08:34:28.632Z,13.10
2023-01-28T08:39:51.014Z,14.80
2023-01-28T08:45:12.944Z,13.07
2023-01-28T08:50:36.823Z,14.77
2023-01-28T08:55:58.631Z,14.20
2023-01-28T09:01:20.337Z,15.93
2023-01-28T09:06:42.068Z,17.10
2023-01-28T09:12:05.851Z,16.97
2023-01-28T09:17:27.853Z,15.13
2023-01-28T09:22:49.568Z,16.27
2023-01-28T09:28:11.334Z,15.27
2023-01-28T09:33:33.709Z,17.23
2023-01-28T09:38:55.398Z,18.00
2023-01-28T09:44:54.206Z,16.13
2023-01-28T09:50:39.845Z,19.10
2023-01-28T09:56:05.404Z,18.50
2023-01-28T10:01:39.782Z,18.97
2023-01-28T10:07:38.322Z,19.70
2023-01-28T10:13:24.152Z,18.00
2023-01-28T10:18:54.815Z,20.77
2023-01-28T10:24:34.613Z,15.77
2023-01-28T10:29:58.654Z,19.17
2023-01-28T10:35:22.287Z,20.90
2023-01-28T10:40:48.140Z,22.87
2023-01-28T10:46:18.232Z,19.23
2023-01-28T10:51:41.967Z,21.67
2023-01-28T10:57:08.707Z,23.20
2023-01-28T11:02:37.050Z,19.70
2023-01-28T11:08:16.170Z,20.03
2023-01-28T11:13:51.328Z,19.10
2023-01-28T11:19:13.020Z,18.10
2023-01-28T11:24:35.863Z,18.53
2023-01-28T11:30:03.217Z,23.17
2023-01-28T11:35:28.786Z,20.13
2023-01-28T11:40:58.223Z,20.23
2023-01-28T11:46:19.862Z,21.33
2023-01-28T11:52:00.991Z,19.27
2023-01-28T11:57:53.481Z,21.73
2023-01-28T12:03:34.546Z,21.37
2023-01-28T12:09:35.213Z,19.10
2023-01-28T12:15:18.573Z,21.17
2023-01-28T12:21:08.267Z,31.63
2023-01-28T12:26:55.245Z,23.30
2023-01-28T12:32:43.159Z,21.37
2023-01-28T12:38:15.056Z,28.43
2023-01-28T12:43:45.448Z,25.97
2023-01-28T12:49:19.317Z,21.97
2023-01-28T12:55:11.308Z,19.20
2023-01-28T13:00:36.605Z,23.30
2023-01-28T13:06:24.781Z,26.03
2023-01-28T13:11:49.679Z,15.67
2023-01-28T13:17:24.356Z,13.87
2023-01-28T13:22:46.070Z,14.20
2023-01-28T13:28:27.664Z,12.27
2023-01-28T13:33:49.356Z,12.30
2023-01-28T13:39:14.114Z,13.70
2023-01-28T13:44:37.101Z,15.77
2023-01-28T13:49:58.782Z,17.37
2023-01-28T13:55:41.742Z,15.37
2023-01-28T14:01:29.078Z,12.27
2023-01-28T14:07:13.811Z,18.17
2023-01-28T14:12:41.477Z,15.90
2023-01-28T14:18:14.699Z,14.80
2023-01-28T14:23:38.984Z,12.10
2023-01-28T14:29:12.424Z,13.70
2023-01-28T14:34:36.812Z,11.70
2023-01-28T14:40:01.014Z,12.90
2023-01-28T14:45:34.642Z,10.50
2023-01-28T14:50:56.424Z,8.87
2023-01-28T14:56:35.570Z,9.57
2023-01-28T15:01:59.470Z,13.97
2023-01-28T15:07:23.559Z,11.83
2023-01-28T15:12:54.349Z,9.87
2023-01-28T15:18:23.738Z,12.90
2023-01-28T15:23:50.868Z,9.47
2023-01-28T15:29:50.627Z,7.83
2023-01-28T15:35:14.189Z,14.60
2023-01-28T15:40:43.002Z,7.80
2023-01-28T15:46:11.296Z,8.10
2023-01-28T15:51:36.601Z,8.30
2023-01-28T15:57:18.566Z,8.10
2023-01-28T16:02:49.774Z,7.67
2023-01-28T16:08:28.378Z,8.47
2023-01-28T16:13:50.392Z,10.90
2023-01-28T16:19:24.850Z,7.97
2023-01-28T16:24:52.867Z,9.00
2023-01-28T16:30:15.992Z,8.37
2023-01-28T16:35:57.118Z,9.43
2023-01-28T16:41:27.235Z,5.77
2023-01-28T16:46:48.939Z,10.07
2023-01-28T16:52:11.611Z,6.83
2023-01-28T16:57:35.765Z,9.63
2023-01-28T17:02:58.337Z,8.47
2023-01-28T17:08:20.087Z,10.83
2023-01-28T17:13:41.795Z,15.60
2023-01-28T17:19:03.794Z,8.53
2023-01-28T17:24:25.682Z,17.53
2023-01-28T17:29:47.419Z,8.43
2023-01-28T17:35:10.446Z,12.70
2023-01-28T17:40:33.050Z,8.67
2023-01-28T17:45:54.838Z,9.17
2023-01-28T17:51:19.671Z,16.80
2023-01-28T17:56:41.850Z,14.63
2023-01-28T18:02:05.553Z,10.57
2023-01-28T18:07:27.306Z,10.83
2023-01-28T18:12:49.048Z,10.17
2023-01-28T18:18:10.863Z,8.73
2023-01-28T18:23:33.521Z,10.60
2023-01-28T18:28:55.243Z,12.77
2023-01-28T18:34:18.176Z,13.10
2023-01-28T18:39:40.009Z,11.63
2023-01-28T18:45:01.869Z,12.10
2023-01-28T18:50:23.648Z,12.70
2023-01-28T18:55:45.535Z,9.73
2023-01-28T19:01:11.188Z,7.67
2023-01-28T19:06:32.915Z,13.30
2023-01-28T19:11:54.659Z,10.10
2023-01-28T19:17:16.401Z,7.93
2023-01-28T19:22:38.225Z,11.30
2023-01-28T19:28:00.359Z,10.07
2023-01-28T19:33:22.129Z,8.93
2023-01-28T19:38:44.979Z,8.47
2023-01-28T19:44:07.227Z,10.60
2023-01-28T19:49:29.660Z,8.63
2023-01-28T19:54:51.454Z,13.87
2023-01-28T20:00:13.469Z,8.53
2023-01-28T20:05:35.862Z,12.80
2023-01-28T20:11:16.416Z,9.87
2023-01-28T20:16:38.272Z,10.83
2023-01-28T20:21:59.974Z,11.90
2023-01-28T20:27:21.676Z,15.00
2023-01-28T20:32:43.442Z,9.13
2023-01-28T20:38:05.528Z,10.07
2023-01-28T20:43:28.688Z,9.97
2023-01-28T20:48:53.525Z,8.43
2023-01-28T20:54:17.615Z,13.10
2023-01-28T20:59:39.375Z,20.00
2023-01-28T21:05:04.406Z,10.80
2023-01-28T21:10:26.235Z,9.67
2023-01-28T21:15:55.890Z,10.80
2023-01-28T21:21:26.397Z,9.23
2023-01-28T21:26:48.103Z,9.67
2023-01-28T21:32:09.813Z,9.37
2023-01-28T21:37:32.525Z,11.23
2023-01-28T21:42:54.736Z,10.00
2023-01-28T21:48:16.404Z,10.93
2023-01-28T21:53:39.349Z,9.00
2023-01-28T21:59:20.060Z,7.90
2023-01-28T22:04:44.240Z,7.63
2023-01-28T22:10:06.399Z,9.83
2023-01-28T22:15:28.081Z,9.57
2023-01-28T22:21:00.240Z,16.60
2023-01-28T22:26:22.069Z,8.47
2023-01-28T22:31:51.122Z,11.40
2023-01-28T22:37:12.886Z,9.97
2023-01-28T22:42:35.581Z,9.73
2023-01-28T22:47:57.304Z,7.53
2023-01-28T22:53:18.990Z,10.80
2023-01-28T22:58:40.972Z,6.73
2023-01-28T23:04:02.667Z,10.20
2023-01-28T23:09:24.337Z,10.30
2023-01-28T23:15:04.426Z,7.43
2023-01-28T23:20:44.708Z,8.60
2023-01-28T23:26:07.190Z,8.27
2023-01-28T23:31:29.023Z,10.97
2023-01-28T23:36:51.407Z,6.47
2023-01-28T23:42:20.826Z,7.10
2023-01-28T23:47:42.496Z,8.70
2023-01-28T23:53:05.778Z,7.70
2023-01-28T23:58:42.571Z,7.73
